Time;durP1;ratioP1;P1;durP2;ratioP2;P2;SDS_P1;SDS_P2;PMS_P1;PMS_P2;Temp;Humidity;BMP_temperature;BMP_pressure;BME280_temperature;BME280_humidity;BME280_pressure;Samples;Min_cycle;Max_cycle;Signal;HPM_P1;HPM_P2
2023/11/15 00:00:51;;;;;;;25.42;4.78;;;10.70;99.90;;;;;;4980015;28;87796;-79
2023/11/15 00:03:16;;;;;;;22.52;4.00;;;10.70;99.90;;;;;;4983204;28;88382;-78
2023/11/15 00:05:43;;;;;;;17.25;4.20;;;10.70;99.90;;;;;;4979286;28;88708;-79
2023/11/15 00:08:08;;;;;;;18.23;4.18;;;10.70;99.90;;;;;;4979859;28;87794;-80
2023/11/15 00:10:34;;;;;;;17.48;3.47;;;10.70;99.90;;;;;;4963330;28;89542;-79
2023/11/15 00:13:00;;;;;;;22.67;4.47;;;10.70;99.90;;;;;;4975996;28;87433;-79
2023/11/15 00:15:26;;;;;;;24.38;3.88;;;10.70;99.90;;;;;;4976850;28;89523;-78
2023/11/15 00:17:52;;;;;;;15.32;4.93;;;10.70;99.90;;;;;;4958569;28;87914;-78
2023/11/15 00:20:18;;;;;;;16.25;3.90;;;10.70;99.90;;;;;;4974292;28;86931;-79
2023/11/15 00:22:44;;;;;;;12.35;3.22;;;10.70;99.90;;;;;;4963539;28;90319;-79
2023/11/15 00:25:10;;;;;;;22.20;4.78;;;10.70;99.90;;;;;;4965557;28;89811;-79
2023/11/15 00:27:36;;;;;;;11.60;3.75;;;10.70;99.90;;;;;;4961638;28;89295;-79
2023/11/15 00:30:03;;;;;;;14.35;3.78;;;10.70;99.90;;;;;;4962971;28;88485;-79
2023/11/15 00:32:28;;;;;;;20.45;3.90;;;10.80;99.90;;;;;;4964343;28;89426;-78
2023/11/15 00:34:54;;;;;;;12.55;2.83;;;10.80;99.90;;;;;;4983606;28;87413;-79
2023/11/15 00:37:20;;;;;;;20.85;3.08;;;10.80;99.90;;;;;;4963193;28;88014;-79
2023/11/15 00:39:47;;;;;;;13.85;3.30;;;10.80;99.90;;;;;;4983707;28;87503;-79
2023/11/15 00:42:13;;;;;;;21.77;3.47;;;10.80;99.90;;;;;;4962716;28;89474;-79
2023/11/15 00:44:38;;;;;;;18.80;3.88;;;10.80;99.90;;;;;;4981020;28;87419;-80
2023/11/15 00:52:17;;;;;;;19.73;3.38;;;10.70;99.90;;;;;;6062306;23;89297;-79
2023/11/15 01:23:12;;;;;;;17.63;2.97;;;10.70;99.90;;;;;;5220056;23;88169;-79
2023/11/15 01:28:14;;;;;;;15.07;2.58;;;10.70;99.90;;;;;;4932872;23;87300;-78
2023/11/15 01:30:39;;;;;;;14.57;3.08;;;10.80;99.90;;;;;;4934113;28;88045;-80
2023/11/15 01:33:05;;;;;;;13.30;2.45;;;10.70;99.90;;;;;;4918071;28;89817;-79
2023/11/15 01:38:06;;;;;;;18.55;2.88;;;10.70;99.90;;;;;;5774848;23;88638;-79
2023/11/15 01:40:34;;;;;;;19.63;3.63;;;10.70;99.90;;;;;;4963384;28;88759;-80
2023/11/15 02:01:17;;;;;;;24.10;2.85;;;10.80;99.90;;;;;;5896824;23;87606;-80
2023/11/15 02:03:46;;;;;;;16.70;3.30;;;10.80;99.90;;;;;;4951212;28;90144;-79
2023/11/15 02:06:13;;;;;;;18.67;2.95;;;10.80;99.90;;;;;;4952008;28;90463;-79
2023/11/15 02:08:39;;;;;;;11.77;3.35;;;10.80;99.90;;;;;;4966600;28;88471;-80
2023/11/15 02:11:05;;;;;;;20.63;3.13;;;10.80;99.90;;;;;;4941834;28;88998;-79
2023/11/15 02:13:31;;;;;;;14.88;3.10;;;10.80;99.90;;;;;;4953171;28;89883;-80
2023/11/15 02:15:57;;;;;;;24.00;4.22;;;10.80;99.90;;;;;;4969030;28;87325;-80
2023/11/15 02:18:25;;;;;;;23.98;3.17;;;10.80;99.90;;;;;;4953275;28;87151;-80
2023/11/15 02:20:51;;;;;;;18.55;2.88;;;10.80;99.90;;;;;;4952052;28;87028;-79
2023/11/15 02:23:23;;;;;;;18.95;3.03;;;10.80;99.90;;;;;;4951748;28;89830;-80
2023/11/15 02:25:53;;;;;;;18.60;3.33;;;10.80;99.90;;;;;;4969667;28;87353;-78
2023/11/15 02:28:19;;;;;;;17.33;3.92;;;10.80;99.90;;;;;;4953463;28;87380;-79
2023/11/15 02:30:57;;;;;;;18.30;3.08;;;10.80;99.90;;;;;;4969465;28;87855;-80
2023/11/15 02:33:23;;;;;;;18.25;3.20;;;10.80;99.90;;;;;;4951543;28;90878;-79
2023/11/15 02:35:49;;;;;;;13.25;2.97;;;10.80;99.90;;;;;;4969862;28;88515;-80
2023/11/15 02:38:15;;;;;;;13.65;2.97;;;10.80;99.90;;;;;;4951187;28;87864;-80
2023/11/15 02:40:42;;;;;;;21.90;3.28;;;10.80;99.90;;;;;;4968098;28;87812;-79
2023/11/15 02:43:11;;;;;;;12.05;2.47;;;10.80;99.90;;;;;;4969693;28;88562;-79
2023/11/15 02:45:36;;;;;;;20.67;3.15;;;10.80;99.90;;;;;;4952938;28;89592;-80
2023/11/15 02:48:03;;;;;;;23.55;2.88;;;10.80;99.90;;;;;;4970106;28;87866;-79
2023/11/15 02:50:31;;;;;;;22.95;3.50;;;10.80;99.90;;;;;;4954055;28;88612;-80
2023/11/15 02:55:33;;;;;;;16.98;2.90;;;10.80;99.90;;;;;;5065686;23;88711;-79
2023/11/15 03:00:37;;;;;;;19.20;3.22;;;10.80;99.90;;;;;;5200609;23;88249;-80
2023/11/15 03:03:04;;;;;;;24.10;3.30;;;10.70;99.90;;;;;;4970026;28;87394;-79
2023/11/15 03:05:31;;;;;;;19.45;3.00;;;10.70;99.90;;;;;;4950350;28;89262;-80
2023/11/15 03:07:59;;;;;;;14.45;2.60;;;10.70;99.90;;;;;;4968951;28;87313;-79
2023/11/15 03:10:27;;;;;;;22.73;2.97;;;10.70;99.90;;;;;;5571557;23;88609;-80
2023/11/15 03:12:53;;;;;;;29.67;3.47;;;10.70;99.90;;;;;;4966770;28;88636;-80
2023/11/15 03:15:19;;;;;;;20.33;3.20;;;10.70;99.90;;;;;;4960475;28;87103;-79
2023/11/15 03:17:47;;;;;;;20.63;3.58;;;10.70;99.90;;;;;;4952553;28;87682;-79
2023/11/15 03:22:48;;;;;;;20.25;2.90;;;10.80;99.90;;;;;;5586858;23;89767;-79
2023/11/15 03:27:51;;;;;;;25.48;3.47;;;10.70;99.90;;;;;;5762959;23;88861;-79
2023/11/15 03:30:19;;;;;;;16.65;2.67;;;10.70;99.90;;;;;;4927176;28;88257;-77
2023/11/15 03:32:45;;;;;;;21.63;3.30;;;10.70;99.90;;;;;;4923634;28;89876;-79
2023/11/15 03:35:13;;;;;;;19.08;3.55;;;10.70;99.90;;;;;;4941194;28;87636;-79
2023/11/15 03:37:41;;;;;;;15.30;2.75;;;10.70;99.90;;;;;;4922175;28;88316;-79
2023/11/15 03:40:11;;;;;;;19.65;3.75;;;10.70;99.90;;;;;;4943972;28;86609;-79
2023/11/15 03:42:37;;;;;;;23.40;3.20;;;10.70;99.90;;;;;;4925846;28;91145;-77
2023/11/15 03:45:04;;;;;;;21.83;3.88;;;10.70;99.90;;;;;;4924994;28;89370;-80
2023/11/15 03:47:33;;;;;;;21.73;3.15;;;10.70;99.90;;;;;;4944109;28;87944;-78
2023/11/15 03:50:00;;;;;;;26.27;4.82;;;10.70;99.90;;;;;;4943332;28;87739;-79
2023/11/15 03:52:26;;;;;;;36.30;4.43;;;10.70;99.90;;;;;;4923413;28;89384;-79
2023/11/15 03:54:51;;;;;;;20.52;3.78;;;10.70;99.90;;;;;;4906548;28;90520;-78
2023/11/15 03:57:17;;;;;;;26.55;4.47;;;10.70;99.90;;;;;;4920824;28;87382;-79
2023/11/15 03:59:44;;;;;;;22.75;2.65;;;10.70;99.90;;;;;;4941028;28;87645;-79
2023/11/15 04:02:10;;;;;;;19.77;3.05;;;10.70;99.90;;;;;;4932595;28;90187;-78
2023/11/15 04:04:38;;;;;;;15.80;2.92;;;10.70;99.90;;;;;;4940734;28;87610;-78
2023/11/15 04:07:04;;;;;;;20.10;3.42;;;10.70;99.90;;;;;;4940257;28;87589;-78
2023/11/15 04:09:34;;;;;;;18.40;3.60;;;10.70;99.90;;;;;;4922223;28;89520;-78
2023/11/15 04:12:00;;;;;;;16.90;3.28;;;10.70;99.90;;;;;;4914581;28;90464;-79
2023/11/15 04:14:26;;;;;;;26.52;2.85;;;10.70;99.90;;;;;;4937819;28;87895;-79
2023/11/15 04:16:52;;;;;;;26.00;2.92;;;10.70;99.90;;;;;;4910872;28;87599;-78
2023/11/15 04:19:21;;;;;;;23.85;2.63;;;10.70;99.90;;;;;;4936996;28;87641;-78
2023/11/15 04:21:48;;;;;;;24.10;3.13;;;10.70;99.90;;;;;;4921837;28;90841;-78
2023/11/15 04:24:14;;;;;;;18.60;2.97;;;10.70;99.90;;;;;;4939989;28;87726;-79
2023/11/15 04:26:40;;;;;;;18.63;2.63;;;10.70;99.90;;;;;;4944482;28;87317;-79
2023/11/15 04:29:06;;;;;;;18.27;2.50;;;10.70;99.90;;;;;;4932634;28;88764;-78
2023/11/15 04:31:35;;;;;;;20.10;2.60;;;10.70;99.90;;;;;;4928182;28;90770;-78
2023/11/15 04:34:02;;;;;;;20.70;2.83;;;10.70;99.90;;;;;;4944130;28;87947;-79
2023/11/15 04:36:34;;;;;;;21.20;2.42;;;10.70;99.90;;;;;;4928911;28;88024;-79
2023/11/15 04:38:59;;;;;;;22.98;2.55;;;10.60;99.90;;;;;;4927163;28;88988;-77
2023/11/15 04:41:25;;;;;;;19.77;2.90;;;10.60;99.90;;;;;;4943330;28;87830;-78
2023/11/15 04:43:51;;;;;;;19.25;3.17;;;10.60;99.90;;;;;;4945851;28;89226;-78
2023/11/15 04:46:20;;;;;;;21.70;2.80;;;10.60;99.90;;;;;;4931072;28;87652;-79
2023/11/15 04:48:46;;;;;;;18.10;2.10;;;10.60;99.90;;;;;;4910671;28;89284;-78
2023/11/15 04:51:11;;;;;;;18.10;2.03;;;10.60;99.90;;;;;;4922475;28;90548;-77
2023/11/15 04:53:37;;;;;;;27.48;2.97;;;10.60;99.90;;;;;;4915897;28;89932;-78
2023/11/15 04:56:03;;;;;;;12.70;2.53;;;10.60;99.90;;;;;;4943179;28;88339;-79
2023/11/15 04:58:30;;;;;;;23.40;2.70;;;10.50;99.90;;;;;;4923338;28;88022;-79
2023/11/15 05:00:56;;;;;;;19.83;2.55;;;10.50;99.90;;;;;;4941031;28;89608;-78
2023/11/15 05:03:22;;;;;;;18.42;3.03;;;10.50;99.90;;;;;;4940938;28;89363;-80
2023/11/15 05:05:50;;;;;;;13.20;2.13;;;10.50;99.90;;;;;;4929842;28;87821;-78
2023/11/15 05:08:16;;;;;;;17.15;2.30;;;10.50;99.90;;;;;;4923952;28;88524;-78
2023/11/15 05:10:42;;;;;;;24.98;3.80;;;10.40;99.90;;;;;;4939571;28;89043;-78
2023/11/15 05:13:08;;;;;;;17.90;2.17;;;10.40;99.90;;;;;;4924300;28;89194;-79
2023/11/15 05:15:34;;;;;;;20.50;2.20;;;10.40;99.90;;;;;;4942117;28;87554;-79
2023/11/15 05:18:00;;;;;;;20.90;2.67;;;10.30;99.90;;;;;;4921035;28;88523;-78
2023/11/15 05:20:26;;;;;;;17.92;2.33;;;10.30;99.90;;;;;;4917831;28;89583;-79
2023/11/15 05:22:54;;;;;;;15.23;2.55;;;10.30;99.90;;;;;;4938721;28;87761;-77
2023/11/15 05:25:21;;;;;;;32.75;3.00;;;10.30;99.90;;;;;;4925098;28;88661;-80
2023/11/15 05:27:57;;;;;;;16.08;2.03;;;10.30;99.90;;;;;;4924016;28;89069;-78
2023/11/15 05:30:23;;;;;;;30.17;3.22;;;10.30;99.90;;;;;;4913799;28;90425;-80
2023/11/15 05:32:51;;;;;;;15.68;2.17;;;10.30;99.90;;;;;;4924004;28;89418;-80
2023/11/15 05:35:17;;;;;;;24.63;2.70;;;10.30;99.90;;;;;;4924078;28;87844;-79
2023/11/15 05:37:45;;;;;;;16.77;1.95;;;10.30;99.90;;;;;;4941317;28;87801;-78
2023/11/15 05:40:24;;;;;;;21.10;2.28;;;10.30;99.90;;;;;;4917890;28;89843;-80
2023/11/15 05:42:49;;;;;;;18.67;3.55;;;10.30;99.90;;;;;;4938350;28;87640;-78
2023/11/15 05:45:15;;;;;;;12.65;2.20;;;10.30;99.90;;;;;;4914346;28;87851;-80
2023/11/15 05:47:41;;;;;;;24.55;2.95;;;10.30;99.90;;;;;;4921595;28;88716;-79
2023/11/15 05:50:11;;;;;;;20.05;3.03;;;10.30;99.90;;;;;;4924395;28;90364;-79
2023/11/15 05:52:38;;;;;;;11.23;2.03;;;10.30;99.90;;;;;;4921981;28;90789;-80
2023/11/15 05:55:08;;;;;;;17.25;2.47;;;10.30;99.90;;;;;;4921474;28;87638;-79
2023/11/15 05:57:34;;;;;;;16.10;2.97;;;10.30;99.90;;;;;;4935910;28;87994;-79
2023/11/15 06:00:03;;;;;;;13.43;1.70;;;10.30;99.90;;;;;;4919541;28;89221;-78
2023/11/15 06:02:29;;;;;;;16.75;1.77;;;10.30;99.90;;;;;;4937381;28;88053;-79
2023/11/15 06:04:56;;;;;;;20.52;2.25;;;10.30;99.90;;;;;;4923091;28;86786;-78
2023/11/15 06:07:25;;;;;;;15.82;2.10;;;10.30;99.90;;;;;;4923677;28;88727;-78
2023/11/15 06:09:50;;;;;;;21.45;2.55;;;10.30;99.90;;;;;;4939370;28;88366;-80
2023/11/15 06:12:18;;;;;;;13.05;2.22;;;10.30;99.90;;;;;;4923265;28;89466;-78
2023/11/15 06:14:43;;;;;;;14.13;2.92;;;10.30;99.90;;;;;;4938558;28;88724;-79
2023/11/15 06:17:09;;;;;;;19.23;2.00;;;10.30;99.90;;;;;;4935624;28;87853;-79
2023/11/15 06:19:34;;;;;;;15.68;2.10;;;10.30;99.90;;;;;;4918184;28;89433;-77
2023/11/15 06:22:00;;;;;;;19.38;3.00;;;10.30;99.90;;;;;;4934801;28;87867;-78
2023/11/15 06:24:26;;;;;;;17.17;2.50;;;10.30;99.90;;;;;;4935754;28;87796;-79
2023/11/15 06:26:52;;;;;;;15.02;2.30;;;10.30;99.90;;;;;;4931764;28;90336;-78
2023/11/15 06:29:22;;;;;;;21.63;2.83;;;10.30;99.90;;;;;;4913297;28;91277;-78
2023/11/15 06:31:48;;;;;;;21.38;2.45;;;10.30;99.90;;;;;;4935004;28;88090;-78
2023/11/15 06:34:14;;;;;;;19.95;2.58;;;10.30;99.90;;;;;;4916755;28;87829;-77
2023/11/15 06:36:44;;;;;;;27.67;2.70;;;10.30;99.90;;;;;;4914799;28;91104;-79
2023/11/15 06:39:12;;;;;;;28.30;3.55;;;10.30;99.90;;;;;;4914667;28;91598;-79
2023/11/15 06:41:38;;;;;;;26.52;3.80;;;10.30;99.90;;;;;;4928511;28;89981;-78
2023/11/15 06:44:08;;;;;;;23.25;2.58;;;10.30;99.90;;;;;;4912534;28;87858;-79
2023/11/15 06:46:38;;;;;;;18.48;2.30;;;10.40;99.90;;;;;;4919227;28;89780;-78
2023/11/15 06:49:15;;;;;;;18.38;2.55;;;10.40;99.90;;;;;;4912266;28;92742;-79
2023/11/15 06:51:48;;;;;;;14.35;3.63;;;10.40;99.90;;;;;;4929269;28;87582;-77
2023/11/15 06:54:13;;;;;;;20.85;3.17;;;10.50;99.90;;;;;;4906079;28;87492;-78
2023/11/15 06:56:39;;;;;;;19.00;3.47;;;10.50;99.90;;;;;;4913082;28;88048;-78
2023/11/15 06:59:05;;;;;;;18.98;2.30;;;10.50;99.90;;;;;;4928924;28;88301;-79
2023/11/15 07:01:31;;;;;;;23.60;3.70;;;10.60;99.90;;;;;;4931839;28;87894;-79
2023/11/15 07:03:58;;;;;;;23.60;2.72;;;10.60;99.90;;;;;;4918623;28;88602;-78
2023/11/15 07:06:24;;;;;;;13.82;2.92;;;10.60;99.90;;;;;;4935983;28;87986;-79
2023/11/15 07:08:49;;;;;;;21.23;2.75;;;10.60;99.90;;;;;;4930655;28;87969;-79
2023/11/15 07:11:15;;;;;;;20.13;3.03;;;10.60;99.90;;;;;;4934069;28;88016;-77
2023/11/15 07:13:40;;;;;;;23.60;3.05;;;10.60;99.90;;;;;;4931013;28;87169;-78
2023/11/15 07:16:10;;;;;;;17.88;2.38;;;10.70;99.90;;;;;;4907576;28;90580;-77
2023/11/15 07:18:37;;;;;;;24.17;3.80;;;10.70;99.90;;;;;;4924504;28;89591;-78
2023/11/15 07:21:04;;;;;;;29.20;3.22;;;10.70;99.90;;;;;;4923428;28;93185;-77
2023/11/15 07:23:30;;;;;;;19.95;2.90;;;10.80;99.90;;;;;;4909778;28;88292;-78
2023/11/15 07:25:55;;;;;;;23.65;4.43;;;10.80;99.90;;;;;;4903309;28;90625;-77
2023/11/15 07:28:23;;;;;;;21.35;3.00;;;10.80;99.90;;;;;;4921284;28;88560;-77
2023/11/15 07:30:50;;;;;;;21.70;3.35;;;10.80;99.90;;;;;;4905181;28;93704;-77
2023/11/15 07:33:36;;;;;;;16.30;2.58;;;10.80;99.90;;;;;;4922904;28;87824;-77
2023/11/15 07:36:02;;;;;;;22.02;3.30;;;10.80;99.90;;;;;;4921250;28;90668;-77
2023/11/15 07:38:28;;;;;;;19.50;3.03;;;10.80;99.90;;;;;;4905496;28;93825;-78
2023/11/15 07:40:54;;;;;;;17.63;2.83;;;10.80;99.90;;;;;;4924749;28;88597;-78
2023/11/15 07:43:20;;;;;;;17.80;3.40;;;10.80;99.90;;;;;;4926327;28;87956;-78
2023/11/15 07:45:51;;;;;;;22.85;3.30;;;10.80;99.90;;;;;;4925413;28;88399;-77
2023/11/15 07:48:17;;;;;;;21.20;3.10;;;10.80;99.90;;;;;;4906305;28;91724;-77
2023/11/15 07:50:45;;;;;;;16.63;3.53;;;10.80;99.90;;;;;;4924789;28;88380;-78
2023/11/15 07:53:12;;;;;;;18.63;2.55;;;10.90;99.90;;;;;;4900008;28;89206;-78
2023/11/15 07:55:38;;;;;;;13.02;2.30;;;10.90;99.90;;;;;;4906475;28;89828;-78
2023/11/15 07:58:04;;;;;;;19.75;3.22;;;10.90;99.90;;;;;;4906467;28;95959;-79
2023/11/15 08:00:30;;;;;;;27.38;4.00;;;10.90;99.90;;;;;;4903821;28;91880;-78
2023/11/15 08:02:56;;;;;;;15.65;3.22;;;10.90;99.90;;;;;;4905286;28;88193;-77
2023/11/15 08:05:22;;;;;;;15.18;3.15;;;10.90;99.90;;;;;;4921342;28;87655;-77
2023/11/15 08:07:48;;;;;;;27.10;3.60;;;10.90;99.90;;;;;;4920355;28;89073;-78
2023/11/15 08:10:14;;;;;;;14.38;2.70;;;10.90;99.90;;;;;;4897860;28;91322;-77
2023/11/15 08:12:45;;;;;;;24.00;2.97;;;11.00;99.90;;;;;;4915615;28;87972;-79
2023/11/15 08:15:14;;;;;;;17.60;3.25;;;10.90;99.90;;;;;;4903597;28;87859;-78
2023/11/15 08:17:41;;;;;;;25.58;4.63;;;10.90;99.90;;;;;;4916854;28;90142;-78
2023/11/15 08:20:09;;;;;;;12.40;2.88;;;11.00;99.90;;;;;;4917275;28;89172;-78
2023/11/15 08:22:37;;;;;;;18.70;3.47;;;11.00;99.90;;;;;;4896130;28;88572;-78
2023/11/15 08:25:12;;;;;;;22.83;2.97;;;11.00;99.90;;;;;;4895435;28;89558;-77
2023/11/15 08:27:40;;;;;;;14.75;2.80;;;11.00;99.90;;;;;;4902656;28;89007;-78
2023/11/15 08:30:17;;;;;;;19.95;2.70;;;10.90;99.90;;;;;;4896910;28;91122;-77
2023/11/15 08:32:43;;;;;;;19.05;3.40;;;11.00;99.90;;;;;;4913787;28;87602;-78
2023/11/15 08:35:15;;;;;;;22.52;3.17;;;11.00;99.90;;;;;;4904378;28;90694;-76
2023/11/15 08:37:40;;;;;;;17.83;2.88;;;11.00;99.90;;;;;;4922519;28;88424;-77
2023/11/15 08:40:10;;;;;;;21.35;3.00;;;11.00;99.90;;;;;;4921437;28;92036;-78
2023/11/15 08:42:36;;;;;;;22.42;3.63;;;11.00;99.90;;;;;;4922219;28;88605;-77
2023/11/15 08:45:08;;;;;;;19.17;3.15;;;11.10;99.90;;;;;;4920616;28;88420;-77
2023/11/15 08:47:37;;;;;;;20.20;2.70;;;11.10;99.90;;;;;;4903533;28;91998;-77
2023/11/15 08:50:08;;;;;;;20.98;2.95;;;11.10;99.90;;;;;;4919012;28;88611;-77
2023/11/15 08:52:34;;;;;;;14.05;2.42;;;11.20;99.90;;;;;;4919795;28;87698;-77
2023/11/15 08:54:59;;;;;;;15.35;3.15;;;11.20;99.90;;;;;;4903076;28;91016;-77
2023/11/15 08:57:26;;;;;;;16.92;2.70;;;11.30;99.90;;;;;;4919888;28;89831;-78
2023/11/15 08:59:51;;;;;;;20.40;3.13;;;11.30;99.90;;;;;;4923164;28;88904;-78
2023/11/15 09:02:21;;;;;;;18.75;2.95;;;11.30;99.90;;;;;;4922809;28;87679;-77
2023/11/15 09:04:50;;;;;;;23.40;3.55;;;11.30;99.90;;;;;;4923408;28;88006;-78
2023/11/15 09:07:19;;;;;;;17.23;2.60;;;11.30;99.90;;;;;;4922626;28;89963;-77
2023/11/15 09:09:46;;;;;;;18.02;2.20;;;11.40;99.90;;;;;;4920086;28;89520;-77
2023/11/15 09:12:13;;;;;;;13.73;2.38;;;11.40;99.90;;;;;;4894837;28;87964;-76
2023/11/15 09:14:39;;;;;;;16.17;2.90;;;11.40;99.90;;;;;;4906658;28;89546;-78
2023/11/15 09:17:12;;;;;;;14.35;3.30;;;11.40;99.90;;;;;;4924523;28;88801;-77
2023/11/15 09:19:41;;;;;;;21.33;3.63;;;11.50;99.90;;;;;;4925893;28;88641;-77
2023/11/15 09:22:08;;;;;;;16.80;3.45;;;11.50;99.90;;;;;;4912966;28;89410;-77
2023/11/15 09:24:33;;;;;;;13.88;2.22;;;11.60;99.90;;;;;;4907856;28;90826;-77
2023/11/15 09:27:00;;;;;;;18.70;3.30;;;11.60;99.90;;;;;;4909177;28;91592;-78
2023/11/15 09:29:28;;;;;;;12.27;2.67;;;11.60;99.90;;;;;;4922902;28;89082;-78
2023/11/15 09:31:54;;;;;;;20.92;3.40;;;11.70;99.90;;;;;;4905265;28;88848;-77
2023/11/15 09:34:20;;;;;;;18.77;2.28;;;11.70;99.90;;;;;;4925352;28;88129;-76
2023/11/15 09:36:47;;;;;;;18.45;2.97;;;11.80;99.90;;;;;;4926233;28;88345;-77
2023/11/15 09:39:16;;;;;;;16.25;3.03;;;11.80;99.90;;;;;;4906114;28;92126;-77
2023/11/15 09:41:51;;;;;;;13.77;2.22;;;11.80;99.90;;;;;;4924849;28;87537;-78
2023/11/15 09:44:19;;;;;;;20.42;3.00;;;11.90;99.90;;;;;;4925649;28;88362;-78
2023/11/15 09:46:46;;;;;;;16.98;3.38;;;11.80;99.90;;;;;;4925936;28;89171;-77
2023/11/15 09:49:15;;;;;;;16.55;3.55;;;11.80;99.90;;;;;;4926085;28;87737;-77
2023/11/15 09:51:41;;;;;;;12.43;2.42;;;11.80;99.90;;;;;;4907791;28;87953;-78
2023/11/15 09:54:08;;;;;;;16.60;3.00;;;11.90;99.90;;;;;;4914304;28;91063;-78
2023/11/15 09:56:34;;;;;;;12.90;2.65;;;11.90;99.90;;;;;;4925739;28;89156;-78
2023/11/15 09:58:59;;;;;;;15.35;4.05;;;11.90;99.90;;;;;;4924851;28;88960;-77
2023/11/15 10:01:26;;;;;;;13.10;3.08;;;12.00;99.90;;;;;;4926762;28;87764;-78
2023/11/15 10:03:52;;;;;;;15.63;3.08;;;12.00;99.90;;;;;;4925394;28;87765;-77
2023/11/15 10:06:18;;;;;;;9.55;2.40;;;12.00;99.90;;;;;;4906597;28;91401;-77
2023/11/15 10:08:52;;;;;;;16.73;2.85;;;11.90;99.90;;;;;;4928327;28;88357;-77
2023/11/15 10:11:18;;;;;;;13.10;2.50;;;12.00;99.90;;;;;;4925239;28;88122;-78
2023/11/15 10:13:44;;;;;;;14.38;2.15;;;11.90;99.90;;;;;;4924732;28;87417;-77
2023/11/15 10:16:30;;;;;;;9.35;2.03;;;12.00;99.90;;;;;;4925211;28;88947;-77
2023/11/15 10:18:58;;;;;;;19.38;3.40;;;12.00;99.90;;;;;;4924849;28;88153;-77
2023/11/15 10:21:24;;;;;;;17.10;2.50;;;11.90;99.90;;;;;;4905002;28;88901;-77
2023/11/15 10:24:09;;;;;;;15.90;3.25;;;12.00;99.90;;;;;;4924431;28;87787;-76
2023/11/15 10:26:38;;;;;;;15.30;2.80;;;11.90;99.90;;;;;;4911577;28;92478;-77
2023/11/15 10:29:12;;;;;;;13.93;2.67;;;12.00;99.90;;;;;;4924162;28;88877;-76
2023/11/15 10:31:51;;;;;;;20.77;3.65;;;11.90;99.90;;;;;;4906892;28;87954;-77
2023/11/15 10:34:17;;;;;;;9.95;1.80;;;11.90;99.90;;;;;;4924740;28;92532;-76
2023/11/15 10:36:43;;;;;;;12.73;2.42;;;11.90;99.90;;;;;;4920977;28;88626;-77
2023/11/15 10:39:11;;;;;;;15.07;2.08;;;11.90;99.90;;;;;;4923764;28;87951;-77
2023/11/15 10:41:38;;;;;;;16.73;2.40;;;11.90;99.90;;;;;;4905053;28;87634;-77
2023/11/15 10:44:07;;;;;;;16.40;2.90;;;11.90;99.90;;;;;;4922556;28;87928;-77
2023/11/15 10:46:39;;;;;;;12.20;2.25;;;11.90;99.90;;;;;;4923158;28;89242;-76
2023/11/15 10:49:06;;;;;;;15.60;2.00;;;12.00;99.90;;;;;;4906476;28;95661;-77
2023/11/15 10:51:44;;;;;;;9.75;1.92;;;12.10;99.90;;;;;;4908401;28;88030;-78
2023/11/15 10:54:13;;;;;;;8.27;2.20;;;12.20;99.90;;;;;;4908785;28;89564;-79
2023/11/15 10:56:43;;;;;;;10.70;2.17;;;12.20;99.90;;;;;;4925128;28;88503;-78
2023/11/15 10:59:10;;;;;;;18.30;2.38;;;12.20;99.90;;;;;;4908098;28;91317;-78
2023/11/15 11:01:37;;;;;;;11.20;1.60;;;12.30;99.90;;;;;;4912174;28;88176;-78
2023/11/15 11:04:05;;;;;;;11.50;2.10;;;12.20;99.90;;;;;;4914029;28;90934;-78
2023/11/15 11:06:37;;;;;;;7.53;1.70;;;12.30;99.90;;;;;;4925910;28;87768;-78
2023/11/15 11:09:12;;;;;;;14.70;2.63;;;12.20;99.90;;;;;;4924481;28;87980;-78
2023/11/15 11:12:05;;;;;;;14.63;2.45;;;12.20;99.90;;;;;;4923846;28;88899;-77
2023/11/15 11:14:32;;;;;;;9.85;1.63;;;12.10;99.90;;;;;;4922885;28;87966;-77
2023/11/15 11:16:59;;;;;;;12.40;1.83;;;12.10;99.90;;;;;;4906815;28;91511;-78
2023/11/15 11:19:27;;;;;;;12.13;1.80;;;12.10;99.90;;;;;;4908237;28;90638;-78
2023/11/15 11:22:03;;;;;;;10.00;1.80;;;12.20;99.90;;;;;;4907909;28;88605;-78
2023/11/15 11:24:39;;;;;;;14.52;1.90;;;12.30;99.90;;;;;;4908074;28;89144;-78
2023/11/15 11:27:14;;;;;;;15.27;2.05;;;12.50;99.90;;;;;;4923950;28;87863;-79
2023/11/15 11:29:51;;;;;;;8.90;1.30;;;12.70;99.90;;;;;;4924818;28;87187;-77
2023/11/15 11:32:26;;;;;;;13.95;2.13;;;13.00;99.90;;;;;;4907485;28;87923;-78
2023/11/15 11:35:07;;;;;;;6.15;1.38;;;13.20;99.90;;;;;;4920074;28;88964;-77
2023/11/15 11:37:55;;;;;;;8.88;1.52;;;13.40;99.90;;;;;;4920325;28;89993;-78
2023/11/15 11:40:32;;;;;;;8.60;1.40;;;13.50;99.90;;;;;;4920433;28;95141;-78
2023/11/15 11:43:19;;;;;;;17.75;2.10;;;13.50;99.90;;;;;;4904938;28;88553;-78
2023/11/15 11:45:53;;;;;;;9.10;1.77;;;13.40;99.90;;;;;;4923506;28;87967;-78
2023/11/15 11:48:28;;;;;;;8.68;1.05;;;13.40;99.90;;;;;;4921040;28;92348;-77
2023/11/15 11:50:54;;;;;;;9.80;1.58;;;13.30;99.90;;;;;;4921486;28;88374;-78
2023/11/15 11:53:21;;;;;;;10.18;1.80;;;13.20;99.90;;;;;;4922663;28;88305;-78
2023/11/15 11:55:50;;;;;;;7.22;1.80;;;13.20;99.90;;;;;;4900345;28;89603;-77
2023/11/15 11:58:16;;;;;;;12.60;1.58;;;13.10;99.90;;;;;;4922627;28;89212;-78
2023/11/15 12:00:41;;;;;;;10.48;1.75;;;13.10;99.90;;;;;;4922682;28;89695;-78
2023/11/15 12:03:10;;;;;;;9.35;1.65;;;13.20;99.90;;;;;;4904097;28;89597;-78
2023/11/15 12:05:36;;;;;;;7.78;1.30;;;13.30;99.90;;;;;;4903510;28;91117;-77
2023/11/15 12:08:03;;;;;;;6.78;0.95;;;13.30;99.90;;;;;;4922844;28;89138;-77
2023/11/15 12:10:29;;;;;;;5.80;1.70;;;13.40;99.90;;;;;;4923775;28;88162;-78
2023/11/15 12:12:54;;;;;;;7.38;1.80;;;13.40;99.90;;;;;;4903133;28;87882;-77
2023/11/15 12:15:30;;;;;;;10.60;1.65;;;13.30;99.90;;;;;;4912467;28;90647;-77
2023/11/15 12:17:58;;;;;;;10.65;1.70;;;13.20;99.90;;;;;;4920411;28;87767;-77
2023/11/15 12:20:29;;;;;;;8.68;1.17;;;13.20;99.90;;;;;;4920265;28;88931;-78
2023/11/15 12:23:09;;;;;;;9.73;1.67;;;13.20;99.90;;;;;;4902754;28;87921;-77
2023/11/15 12:25:51;;;;;;;9.77;1.83;;;13.40;99.90;;;;;;4925361;28;90635;-78
2023/11/15 12:28:25;;;;;;;8.85;1.38;;;13.50;99.90;;;;;;4904139;28;96906;-78
2023/11/15 12:30:56;;;;;;;14.52;3.65;;;13.70;99.90;;;;;;4922782;28;89381;-78
2023/11/15 12:33:23;;;;;;;12.95;2.35;;;13.90;99.90;;;;;;4891385;28;88032;-78
2023/11/15 12:35:51;;;;;;;12.90;2.10;;;14.10;99.90;;;;;;4922081;28;88103;-77
2023/11/15 12:38:18;;;;;;;8.70;1.58;;;14.40;99.90;;;;;;4909825;28;91970;-77
2023/11/15 12:40:44;;;;;;;11.52;1.70;;;14.60;99.90;;;;;;4923697;28;87823;-77
2023/11/15 12:43:13;;;;;;;7.55;1.50;;;15.00;99.90;;;;;;4922420;28;87896;-77
2023/11/15 12:45:39;;;;;;;6.93;1.48;;;15.20;99.90;;;;;;4924289;28;87192;-78
2023/11/15 12:48:07;;;;;;;5.38;1.13;;;15.40;99.40;;;;;;4912668;28;89612;-78
2023/11/15 12:50:37;;;;;;;10.38;2.15;;;15.50;99.40;;;;;;4914197;28;89085;-78
2023/11/15 12:53:07;;;;;;;10.82;1.30;;;15.60;98.90;;;;;;4905947;28;88567;-78
2023/11/15 12:55:53;;;;;;;7.72;1.25;;;15.80;98.90;;;;;;4922624;28;87876;-80
2023/11/15 12:58:20;;;;;;;7.57;1.10;;;15.90;98.20;;;;;;4920701;28;96154;-79
2023/11/15 13:01:00;;;;;;;9.68;1.17;;;15.90;98.10;;;;;;4918560;28;91022;-78
2023/11/15 13:03:36;;;;;;;6.10;1.15;;;16.00;97.90;;;;;;4919019;28;87807;-77
2023/11/15 13:06:15;;;;;;;10.48;1.98;;;16.10;97.20;;;;;;4914091;28;91153;-78
2023/11/15 13:08:48;;;;;;;10.32;1.15;;;16.10;96.90;;;;;;4911415;28;92047;-77
2023/11/15 13:11:27;;;;;;;7.55;1.27;;;16.00;97.40;;;;;;4921354;28;92125;-77
2023/11/15 13:13:53;;;;;;;13.43;1.65;;;15.80;96.60;;;;;;4921209;28;87978;-78
2023/11/15 13:16:20;;;;;;;9.10;1.00;;;15.50;97.90;;;;;;4936825;28;88128;-78
2023/11/15 13:18:47;;;;;;;11.10;1.23;;;15.20;98.20;;;;;;4938804;28;90369;-78
2023/11/15 13:21:15;;;;;;;9.60;1.50;;;15.10;98.80;;;;;;4935971;28;90064;-77
2023/11/15 13:23:45;;;;;;;8.75;1.35;;;14.90;99.40;;;;;;4919055;28;88184;-77
2023/11/15 13:26:15;;;;;;;7.88;0.95;;;14.60;99.40;;;;;;4923446;28;90527;-78
2023/11/15 13:28:47;;;;;;;10.32;1.73;;;14.40;99.40;;;;;;4938068;28;89025;-78
2023/11/15 13:31:17;;;;;;;6.88;1.20;;;14.30;99.80;;;;;;4936219;28;89286;-77
2023/11/15 13:33:46;;;;;;;10.18;0.95;;;14.30;99.90;;;;;;4938797;28;88198;-77
2023/11/15 13:36:15;;;;;;;7.60;1.35;;;14.30;99.90;;;;;;4918217;28;89719;-77
2023/11/15 13:38:42;;;;;;;7.88;1.35;;;14.40;99.90;;;;;;4934974;28;89165;-76
2023/11/15 13:41:10;;;;;;;9.73;1.00;;;14.40;99.90;;;;;;4922275;28;89558;-76
2023/11/15 13:43:36;;;;;;;7.97;1.35;;;14.60;99.90;;;;;;4946973;28;89352;-77
2023/11/15 13:46:06;;;;;;;9.30;1.13;;;14.80;99.90;;;;;;4926667;28;91009;-77
2023/11/15 13:48:33;;;;;;;11.57;1.33;;;14.90;99.80;;;;;;4925092;28;91795;-77
2023/11/15 13:50:59;;;;;;;9.57;1.30;;;15.20;99.80;;;;;;4944953;28;88772;-77